Time;durP1;ratioP1;P1;durP2;ratioP2;P2;SDS_P1;SDS_P2;PMS_P1;PMS_P2;Temp;Humidity;BMP_temperature;BMP_pressure;BME280_temperature;BME280_humidity;BME280_pressure;Samples;Min_cycle;Max_cycle;Signal;HPM_P1;HPM_P2
2022/11/20 05:22:32;;;;;;;6.88;3.03;;;;;;;6.58;100.00;99745.44;5068625;28;20168;-69
2022/11/20 05:24:57;;;;;;;2.72;2.13;;;;;;;6.61;100.00;99746.97;5068804;28;20071;-69
2022/11/20 05:27:23;;;;;;;2.28;2.05;;;;;;;6.64;100.00;99739.50;5068618;28;20037;-69
2022/11/20 05:29:48;;;;;;;3.95;2.42;;;;;;;6.69;100.00;99739.88;5068649;28;20032;-68
2022/11/20 05:32:13;;;;;;;3.63;2.13;;;;;;;6.73;100.00;99746.50;5069012;28;20397;-68
2022/11/20 05:34:39;;;;;;;3.78;2.45;;;;;;;6.77;100.00;99750.47;5068673;28;20041;-68
2022/11/20 05:37:04;;;;;;;5.03;2.42;;;;;;;6.77;100.00;99747.81;5068443;28;20359;-68
2022/11/20 05:39:30;;;;;;;5.13;2.17;;;;;;;6.76;100.00;99742.69;5068535;28;20123;-68
2022/11/20 05:44:39;;;;;;;3.35;1.92;;;;;;;6.79;100.00;99740.56;5068463;28;20040;-69
2022/11/20 05:47:05;;;;;;;6.93;2.20;;;;;;;6.79;100.00;99737.09;5068402;28;20045;-68
2022/11/20 05:49:30;;;;;;;3.65;2.30;;;;;;;6.76;100.00;99732.09;5068384;28;20041;-68
2022/11/20 05:51:56;;;;;;;3.47;2.05;;;;;;;6.79;100.00;99729.97;5067788;28;20566;-68
2022/11/20 05:54:21;;;;;;;4.47;2.10;;;;;;;6.84;100.00;99739.25;5067213;28;20041;-69
2022/11/20 05:56:47;;;;;;;3.70;1.90;;;;;;;6.80;100.00;99729.00;5068243;28;20500;-69
2022/11/20 05:59:12;;;;;;;2.65;1.92;;;;;;;6.80;100.00;99734.28;5068070;28;20435;-68
2022/11/20 06:01:37;;;;;;;3.03;1.52;;;;;;;6.82;100.00;99741.22;5067809;28;20033;-68
2022/11/20 06:04:03;;;;;;;5.25;2.08;;;;;;;6.88;100.00;99740.59;5067976;28;20199;-68
2022/11/20 06:06:28;;;;;;;2.65;1.67;;;;;;;6.82;100.00;99735.94;5067830;28;20041;-68
2022/11/20 06:08:54;;;;;;;2.90;1.90;;;;;;;6.85;100.00;99747.03;5066646;28;20041;-69
2022/11/20 06:11:20;;;;;;;3.50;1.77;;;;;;;6.83;100.00;99738.41;5067482;28;20033;-67
2022/11/20 06:13:46;;;;;;;4.72;1.90;;;;;;;6.87;100.00;99741.59;5067834;28;20498;-67
2022/11/20 06:16:14;;;;;;;3.05;1.65;;;;;;;6.86;100.00;99739.94;5067858;28;20447;-68
2022/11/20 06:18:39;;;;;;;2.40;1.48;;;;;;;6.86;100.00;99747.88;5067710;28;20473;-67
2022/11/20 06:21:11;;;;;;;2.45;1.67;;;;;;;6.89;100.00;99739.59;5067185;28;20083;-67
2022/11/20 06:23:38;;;;;;;1.90;1.70;;;;;;;6.88;100.00;99741.41;5067565;28;20111;-67
2022/11/20 06:26:12;;;;;;;2.53;1.75;;;;;;;6.95;100.00;99741.59;5067481;28;20024;-68
2022/11/20 06:28:38;;;;;;;1.45;1.30;;;;;;;6.89;100.00;99740.41;5066243;28;20371;-68
2022/11/20 06:31:04;;;;;;;3.03;1.80;;;;;;;6.90;100.00;99746.53;5067088;28;20154;-68
2022/11/20 06:33:30;;;;;;;2.25;1.80;;;;;;;6.90;100.00;99741.25;5056380;28;20033;-67
2022/11/20 06:36:00;;;;;;;2.00;1.48;;;;;;;6.93;100.00;99738.28;5054074;28;20056;-68
2022/11/20 06:38:26;;;;;;;5.57;1.48;;;;;;;6.91;100.00;99738.47;5054164;28;20111;-68
2022/11/20 06:40:52;;;;;;;2.08;1.50;;;;;;;6.93;100.00;99733.81;5053891;28;20116;-67
2022/11/20 06:43:17;;;;;;;1.77;1.40;;;;;;;6.92;100.00;99734.00;5054004;28;20116;-67
2022/11/20 06:45:42;;;;;;;2.17;1.58;;;;;;;6.92;100.00;99734.81;5054016;28;20482;-67
2022/11/20 06:48:08;;;;;;;2.55;1.73;;;;;;;6.94;100.00;99739.94;5053927;28;20033;-69
2022/11/20 06:50:36;;;;;;;1.98;1.23;;;;;;;6.93;100.00;99747.06;5053490;28;20075;-67
2022/11/20 06:53:02;;;;;;;3.23;1.90;;;;;;;6.91;100.00;99742.91;5053869;28;20037;-68
2022/11/20 06:55:28;;;;;;;2.05;1.45;;;;;;;6.93;100.00;99751.53;5053761;28;20478;-68
2022/11/20 06:57:53;;;;;;;2.13;1.50;;;;;;;6.95;100.00;99754.84;5053797;28;20032;-67
2022/11/20 07:00:19;;;;;;;2.40;1.27;;;;;;;6.98;100.00;99757.19;5053506;28;20044;-67
2022/11/20 07:02:44;;;;;;;2.55;1.60;;;;;;;6.96;100.00;99759.13;5053556;28;20116;-67
2022/11/20 07:05:09;;;;;;;2.03;1.30;;;;;;;6.98;100.00;99765.94;5053536;28;20383;-67
2022/11/20 07:07:35;;;;;;;4.30;1.70;;;;;;;6.94;100.00;99763.78;5053491;28;20066;-68
2022/11/20 07:10:00;;;;;;;2.25;1.60;;;;;;;7.01;100.00;99770.91;5053391;28;20512;-68
2022/11/20 07:12:25;;;;;;;2.00;1.20;;;;;;;7.00;100.00;99774.56;5053263;28;20055;-67
2022/11/20 07:14:51;;;;;;;1.40;1.30;;;;;;;6.99;100.00;99764.94;5053552;28;20047;-68
2022/11/20 07:17:16;;;;;;;1.60;1.27;;;;;;;6.97;100.00;99772.22;5053286;28;20056;-68
2022/11/20 07:19:42;;;;;;;3.42;1.70;;;;;;;6.96;100.00;99775.84;5053356;28;20127;-67
2022/11/20 07:22:08;;;;;;;3.65;1.92;;;;;;;6.97;100.00;99781.97;5051548;28;20033;-67
2022/11/20 07:24:34;;;;;;;3.65;1.70;;;;;;;6.92;100.00;99779.84;5053220;28;20524;-68
2022/11/20 07:27:00;;;;;;;2.20;1.60;;;;;;;6.84;100.00;99776.31;5053064;28;20028;-67
2022/11/20 07:29:25;;;;;;;3.20;1.80;;;;;;;6.87;100.00;99776.00;5053411;28;20052;-68
2022/11/20 07:31:50;;;;;;;3.35;1.67;;;;;;;6.84;100.00;99776.31;5052761;28;20112;-68
2022/11/20 07:34:16;;;;;;;2.53;1.27;;;;;;;6.80;100.00;99776.66;5053029;28;20029;-67
2022/11/20 07:36:41;;;;;;;3.45;1.73;;;;;;;6.87;100.00;99776.81;5053014;28;20041;-68
2022/11/20 07:39:07;;;;;;;2.42;1.52;;;;;;;6.89;100.00;99779.31;5053131;28;20116;-68
2022/11/20 07:41:32;;;;;;;2.63;1.75;;;;;;;6.86;100.00;99777.00;5052842;28;20482;-67
2022/11/20 07:43:58;;;;;;;2.75;1.85;;;;;;;6.84;100.00;99787.72;5052212;28;20033;-68
2022/11/20 07:46:23;;;;;;;2.28;1.50;;;;;;;6.85;100.00;99784.13;5052697;28;20104;-68
2022/11/20 07:48:48;;;;;;;2.47;1.80;;;;;;;6.88;100.00;99785.59;5052770;28;20060;-68
2022/11/20 07:51:14;;;;;;;2.05;1.70;;;;;;;6.89;100.00;99787.25;5052345;28;20073;-68
2022/11/20 07:53:39;;;;;;;4.25;1.63;;;;;;;6.89;100.00;99796.03;5051380;28;20441;-69
2022/11/20 07:56:05;;;;;;;1.38;1.17;;;;;;;6.91;100.00;99785.25;5052502;28;20048;-68
2022/11/20 07:58:32;;;;;;;2.10;1.42;;;;;;;6.89;100.00;99785.44;5052645;28;20047;-69
2022/11/20 08:01:03;;;;;;;2.33;1.55;;;;;;;6.94;100.00;99792.91;5052267;28;20048;-70
2022/11/20 08:03:28;;;;;;;1.38;1.15;;;;;;;6.92;100.00;99789.59;5051402;28;20033;-70
2022/11/20 08:05:53;;;;;;;3.05;2.13;;;;;;;6.95;100.00;99794.56;5052379;28;20033;-70
2022/11/20 08:08:19;;;;;;;3.13;2.03;;;;;;;6.92;100.00;99794.88;5052363;28;20064;-68
2022/11/20 08:10:45;;;;;;;3.00;1.58;;;;;;;6.94;100.00;99803.50;5052239;28;20041;-69
2022/11/20 08:15:54;;;;;;;1.77;1.50;;;;;;;6.93;100.00;99807.13;5052224;28;20041;-69
2022/11/20 08:18:20;;;;;;;1.65;1.52;;;;;;;6.97;100.00;99805.81;5052146;28;20052;-69
2022/11/20 08:20:45;;;;;;;2.13;1.60;;;;;;;6.95;100.00;99810.44;5051670;28;20115;-69
2022/11/20 08:23:11;;;;;;;2.80;1.55;;;;;;;6.93;100.00;99818.56;5052184;28;20045;-69
2022/11/20 08:25:38;;;;;;;4.07;1.38;;;;;;;6.97;100.00;99822.53;5052024;28;20044;-69
2022/11/20 08:28:06;;;;;;;2.45;1.50;;;;;;;6.92;100.00;99814.25;5052123;28;20036;-69
2022/11/20 08:30:32;;;;;;;2.08;1.63;;;;;;;6.88;100.00;99817.38;5051933;28;20048;-64
2022/11/20 08:33:10;;;;;;;2.00;1.55;;;;;;;6.95;100.00;99811.28;5052769;28;20044;-64
2022/11/20 08:35:37;;;;;;;3.33;1.98;;;;;;;7.01;100.00;99820.41;5052937;28;20424;-63
2022/11/20 08:38:06;;;;;;;2.17;1.57;;;;;;;7.00;100.00;99824.03;5053404;28;20106;-64
2022/11/20 08:40:32;;;;;;;3.35;2.05;;;;;;;7.01;100.00;99825.69;5052378;28;20039;-64
2022/11/20 08:42:57;;;;;;;2.45;1.45;;;;;;;6.99;100.00;99831.16;5052406;28;20484;-64
2022/11/20 08:45:22;;;;;;;2.60;1.48;;;;;;;7.04;100.00;99830.66;5051979;28;20087;-70
2022/11/20 08:47:48;;;;;;;4.63;2.15;;;;;;;7.05;100.00;99837.63;5051593;28;20063;-70
2022/11/20 08:50:15;;;;;;;3.50;2.00;;;;;;;7.05;100.00;99835.81;5051647;28;20112;-70
2022/11/20 08:52:41;;;;;;;3.42;1.80;;;;;;;7.07;100.00;99846.25;5051617;28;20033;-69
2022/11/20 08:55:07;;;;;;;1.50;1.40;;;;;;;7.09;100.00;99836.31;5051155;28;20494;-69
2022/11/20 08:57:34;;;;;;;4.05;2.30;;;;;;;7.12;100.00;99837.81;5051333;28;20029;-70
2022/11/20 08:59:59;;;;;;;1.88;1.30;;;;;;;7.13;100.00;99835.00;5051102;28;20067;-70
2022/11/20 09:02:25;;;;;;;2.80;1.52;;;;;;;7.07;100.00;99847.06;5051237;28;20462;-70
2022/11/20 09:04:51;;;;;;;3.72;1.75;;;;;;;7.14;100.00;99847.25;5051275;28;20071;-70
2022/11/20 09:07:16;;;;;;;3.00;1.85;;;;;;;7.13;100.00;99850.91;5051100;28;20072;-70
2022/11/20 09:09:41;;;;;;;3.60;1.70;;;;;;;7.17;100.00;99852.25;5051333;28;20036;-69
2022/11/20 09:12:07;;;;;;;1.70;1.40;;;;;;;7.11;100.00;99839.66;5050675;28;20052;-69
2022/11/20 09:14:33;;;;;;;3.22;1.70;;;;;;;7.10;100.00;99856.50;5051117;28;20049;-70
2022/11/20 09:16:58;;;;;;;2.33;1.33;;;;;;;7.08;100.00;99861.13;5033152;28;20446;-69
2022/11/20 09:19:24;;;;;;;2.50;1.83;;;;;;;7.11;100.00;99852.88;5051141;28;20076;-69
2022/11/20 09:21:50;;;;;;;3.03;1.88;;;;;;;7.05;100.00;99857.00;5050817;28;20043;-69
2022/11/20 09:24:16;;;;;;;2.58;1.60;;;;;;;7.06;100.00;99863.94;5051503;28;20047;-65
2022/11/20 09:26:41;;;;;;;2.38;1.60;;;;;;;7.06;100.00;99856.00;5051429;28;20044;-67
2022/11/20 09:29:07;;;;;;;2.63;1.58;;;;;;;7.11;100.00;99860.84;5051358;28;20040;-70
2022/11/20 09:31:32;;;;;;;2.75;1.45;;;;;;;7.11;100.00;99863.47;5050784;28;20081;-71
2022/11/20 09:33:57;;;;;;;1.73;1.35;;;;;;;7.10;100.00;99872.41;5049866;28;20167;-70
2022/11/20 09:36:23;;;;;;;3.17;1.90;;;;;;;7.07;100.00;99867.44;5051029;28;20049;-69
2022/11/20 09:38:48;;;;;;;3.47;1.80;;;;;;;7.09;100.00;99865.44;5051184;28;20025;-70
2022/11/20 09:41:41;;;;;;;4.10;1.50;;;;;;;7.01;100.00;99873.38;5051589;28;20041;-70
2022/11/20 09:44:34;;;;;;;2.50;1.50;;;;;;;7.03;100.00;99874.03;5051079;28;20033;-71
2022/11/20 09:47:36;;;;;;;4.13;1.58;;;;;;;7.00;100.00;99871.72;5051018;28;20037;-70
2022/11/20 09:50:17;;;;;;;2.60;1.42;;;;;;;6.99;100.00;99875.34;5050968;28;20498;-70
2022/11/20 09:52:58;;;;;;;6.80;1.92;;;;;;;6.91;100.00;99864.69;5050973;28;20041;-70
2022/11/20 09:55:24;;;;;;;2.00;1.67;;;;;;;6.95;100.00;99880.13;5050918;28;20068;-70
2022/11/20 09:57:52;;;;;;;3.35;1.50;;;;;;;6.97;100.00;99878.13;5051011;28;20068;-71
2022/11/20 10:00:21;;;;;;;2.42;1.73;;;;;;;6.96;100.00;99886.25;5049310;28;20132;-71
2022/11/20 10:03:23;;;;;;;4.03;1.67;;;;;;;6.98;100.00;99881.63;5051020;28;20437;-71
2022/11/20 10:05:53;;;;;;;3.00;1.80;;;;;;;6.97;100.00;99879.94;5050711;28;20037;-71
2022/11/20 10:08:30;;;;;;;2.22;1.58;;;;;;;6.94;100.00;99877.63;5053256;28;20116;-70
2022/11/20 10:11:13;;;;;;;2.78;1.88;;;;;;;6.93;100.00;99876.81;5052981;28;20051;-72
2022/11/20 10:13:53;;;;;;;3.65;2.25;;;;;;;6.95;100.00;99879.28;5054598;28;20119;-71
2022/11/20 10:16:51;;;;;;;2.75;2.00;;;;;;;6.95;100.00;99880.13;5054478;28;20122;-71
2022/11/20 10:19:40;;;;;;;1.63;1.27;;;;;;;7.01;100.00;99878.66;5054454;28;20040;-72
2022/11/20 10:22:25;;;;;;;3.72;1.75;;;;;;;7.08;100.00;99880.50;5052778;28;20029;-71
2022/11/20 10:25:07;;;;;;;4.40;2.03;;;;;;;7.22;100.00;99868.47;5054456;28;20037;-71
2022/11/20 10:27:51;;;;;;;3.45;1.95;;;;;;;7.63;100.00;99865.94;5054281;28;20394;-71
2022/11/20 10:30:19;;;;;;;3.42;1.52;;;;;;;8.11;100.00;99867.78;5053881;28;20064;-71
2022/11/20 10:33:00;;;;;;;3.85;2.00;;;;;;;8.56;100.00;99863.78;5036343;28;20188;-71
2022/11/20 10:35:34;;;;;;;5.35;1.95;;;;;;;8.97;100.00;99868.97;5054158;28;20040;-72
2022/11/20 10:38:02;;;;;;;2.83;1.90;;;;;;;9.46;100.00;99850.94;5052878;28;20033;-71
2022/11/20 10:40:31;;;;;;;3.33;1.50;;;;;;;9.57;100.00;99862.16;5053770;28;20029;-72
2022/11/20 10:43:02;;;;;;;3.33;1.88;;;;;;;9.31;100.00;99855.34;5052702;28;20603;-72
2022/11/20 10:45:40;;;;;;;4.28;2.10;;;;;;;9.09;100.00;99840.19;5052464;28;20037;-71
2022/11/20 10:48:22;;;;;;;1.95;1.48;;;;;;;9.05;100.00;99836.22;5052608;28;20405;-71
2022/11/20 10:51:12;;;;;;;3.92;1.85;;;;;;;9.17;100.00;99832.16;5053427;28;20186;-71
2022/11/20 10:54:07;;;;;;;7.10;2.30;;;;;;;9.03;100.00;99835.56;5053835;28;20044;-71
2022/11/20 10:56:41;;;;;;;3.10;1.92;;;;;;;9.00;100.00;99842.06;5049009;28;20045;-72
2022/11/20 10:59:38;;;;;;;6.15;1.77;;;;;;;9.14;100.00;99829.88;5052518;28;20037;-71
2022/11/20 11:02:21;;;;;;;2.67;1.80;;;;;;;9.64;100.00;99825.88;5053584;28;20025;-71
2022/11/20 11:04:52;;;;;;;2.17;1.60;;;;;;;9.69;100.00;99827.00;5053720;28;20163;-71
2022/11/20 11:07:25;;;;;;;2.05;1.52;;;;;;;9.77;100.00;99810.16;5053542;28;20033;-72
2022/11/20 11:09:54;;;;;;;2.30;1.67;;;;;;;9.75;100.00;99820.16;5055014;28;20045;-71
2022/11/20 11:12:21;;;;;;;2.20;1.73;;;;;;;9.58;100.00;99815.97;5053429;28;20025;-70
2022/11/20 11:14:51;;;;;;;3.03;1.98;;;;;;;9.47;100.00;99807.41;5053508;28;20091;-71
2022/11/20 11:17:27;;;;;;;2.90;1.40;;;;;;;9.51;100.00;99805.22;5052131;28;20514;-72
2022/11/20 11:20:06;;;;;;;4.82;1.80;;;;;;;9.42;100.00;99798.31;5053300;28;20401;-72
2022/11/20 11:22:34;;;;;;;5.75;2.13;;;;;;;9.35;100.00;99797.34;5051867;28;20028;-72
2022/11/20 11:25:01;;;;;;;3.00;1.98;;;;;;;9.35;100.00;99797.34;5053594;28;20029;-71
2022/11/20 11:27:27;;;;;;;3.55;1.50;;;;;;;9.25;100.00;99790.41;5053293;28;20036;-71
2022/11/20 11:30:12;;;;;;;2.33;1.50;;;;;;;9.14;100.00;99788.19;5053499;28;20033;-72
2022/11/20 11:32:38;;;;;;;2.17;1.52;;;;;;;9.33;100.00;99778.94;5052386;28;20037;-71
2022/11/20 11:35:22;;;;;;;3.28;1.63;;;;;;;10.42;99.72;99777.63;5051651;28;20049;-72
2022/11/20 11:37:49;;;;;;;1.85;1.52;;;;;;;11.64;93.99;99776.00;5053359;28;20116;-72
2022/11/20 11:40:17;;;;;;;3.85;1.70;;;;;;;12.67;83.18;99779.00;5052938;28;20045;-72
2022/11/20 11:42:44;;;;;;;1.90;1.23;;;;;;;13.63;75.52;99769.06;5052737;28;20037;-72
2022/11/20 11:45:17;;;;;;;1.93;1.40;;;;;;;14.15;70.06;99766.53;5052823;28;20494;-72
2022/11/20 11:47:42;;;;;;;5.95;1.13;;;;;;;14.63;68.25;99759.06;5051582;28;20378;-72
2022/11/20 11:50:18;;;;;;;1.75;1.27;;;;;;;14.93;66.57;99762.88;5051336;28;20116;-72
2022/11/20 11:52:51;;;;;;;1.88;1.25;;;;;;;13.86;62.79;99749.91;5052810;28;20045;-72
2022/11/20 11:55:37;;;;;;;1.70;1.17;;;;;;;14.32;63.41;99749.00;5052740;28;20439;-72
2022/11/20 11:58:09;;;;;;;1.33;1.15;;;;;;;14.86;61.56;99737.94;5052682;28;20119;-72
2022/11/20 12:00:37;;;;;;;1.92;1.08;;;;;;;15.02;60.98;99741.19;5052283;28;20486;-72
2022/11/20 12:03:15;;;;;;;1.92;1.40;;;;;;;14.97;60.46;99735.63;5052561;28;20029;-73
2022/11/20 12:05:45;;;;;;;4.45;1.20;;;;;;;15.27;57.81;99730.50;5052439;28;20041;-73
2022/11/20 12:08:14;;;;;;;1.17;0.80;;;;;;;14.57;56.58;99741.16;5052568;28;20136;-73
2022/11/20 12:10:55;;;;;;;2.67;1.02;;;;;;;13.82;60.03;99745.97;5050750;28;20094;-72
2022/11/20 12:13:33;;;;;;;2.55;1.23;;;;;;;13.22;64.00;99748.59;5052537;28;20576;-72
2022/11/20 12:15:59;;;;;;;2.13;1.13;;;;;;;12.54;66.05;99755.72;5052319;28;20037;-72
2022/11/20 12:18:25;;;;;;;1.63;1.17;;;;;;;12.18;71.50;99745.22;5052198;28;20049;-73
2022/11/20 12:21:03;;;;;;;2.40;1.15;;;;;;;11.70;72.42;99747.72;5050587;28;20040;-73
2022/11/20 12:23:42;;;;;;;1.52;1.30;;;;;;;11.66;74.60;99735.78;5052045;28;20029;-73
2022/11/20 12:26:19;;;;;;;2.45;1.25;;;;;;;11.42;74.39;99739.69;5052018;28;20469;-73
2022/11/20 12:28:59;;;;;;;1.10;1.00;;;;;;;11.29;74.27;99737.72;5051935;28;20036;-73
2022/11/20 12:31:30;;;;;;;1.10;1.00;;;;;;;11.21;73.75;99737.00;5050802;28;20033;-72
2022/11/20 12:34:15;;;;;;;2.83;0.98;;;;;;;11.11;71.22;99734.66;5043743;28;20037;-73
2022/11/20 12:36:59;;;;;;;3.85;0.88;;;;;;;11.20;68.61;99736.16;5050428;28;20486;-69
2022/11/20 12:39:35;;;;;;;1.67;1.00;;;;;;;11.18;69.08;99742.72;5051720;28;20589;-72
2022/11/20 12:45:10;;;;;;;0.93;0.70;;;;;;;11.81;66.30;99743.75;5051889;28;20116;-73
2022/11/20 12:48:16;;;;;;;4.03;0.90;;;;;;;11.85;65.78;99736.97;5051826;28;20037;-73
2022/11/20 12:50:57;;;;;;;1.30;1.02;;;;;;;11.91;64.79;99731.69;5028237;28;20049;-73
2022/11/20 12:53:25;;;;;;;1.48;0.82;;;;;;;11.93;65.33;99732.34;5051684;28;20047;-73
2022/11/20 12:56:19;;;;;;;1.80;1.08;;;;;;;11.74;65.07;99737.50;5051649;28;20064;-73
2022/11/20 12:58:50;;;;;;;3.17;1.23;;;;;;;11.47;65.42;99739.09;5050284;28;20037;-73
2022/11/20 13:01:43;;;;;;;3.38;0.98;;;;;;;11.52;63.52;99729.50;5051349;28;20497;-72
2022/11/20 13:04:27;;;;;;;1.98;1.00;;;;;;;11.62;62.04;99714.00;5051510;28;20032;-73
2022/11/20 13:06:53;;;;;;;0.57;0.57;;;;;;;11.53;63.17;99725.81;5051500;28;20036;-73
2022/11/20 13:09:22;;;;;;;2.65;0.90;;;;;;;11.45;61.94;99727.78;5050126;28;20033;-73
2022/11/20 13:12:19;;;;;;;0.75;0.60;;;;;;;11.32;61.34;99713.31;5051233;28;20090;-72
2022/11/20 13:15:05;;;;;;;1.85;0.85;;;;;;;11.17;62.42;99712.56;5031498;28;20050;-73
2022/11/20 13:17:47;;;;;;;0.47;0.38;;;;;;;11.28;62.89;99705.88;5049779;28;20036;-73
2022/11/20 13:20:16;;;;;;;1.80;1.02;;;;;;;11.33;63.20;99714.13;5051010;28;20048;-74
2022/11/20 13:22:51;;;;;;;0.95;0.50;;;;;;;11.27;59.88;99698.91;5049910;28;20056;-74
2022/11/20 13:25:32;;;;;;;1.90;0.90;;;;;;;11.05;61.01;99698.09;5051217;28;20036;-73
2022/11/20 13:28:00;;;;;;;1.35;0.85;;;;;;;10.92;63.78;99698.78;5051300;28;20068;-73
2022/11/20 13:30:30;;;;;;;1.05;0.80;;;;;;;10.71;63.62;99696.09;5051026;28;20029;-73
2022/11/20 13:33:08;;;;;;;3.45;1.33;;;;;;;10.56;63.84;99698.75;5050080;28;20052;-72
2022/11/20 13:35:40;;;;;;;1.17;0.88;;;;;;;10.49;63.85;99695.19;5051070;28;20171;-73
2022/11/20 13:38:09;;;;;;;0.85;0.80;;;;;;;10.55;62.95;99700.59;5051203;28;20387;-72
2022/11/20 13:40:59;;;;;;;1.80;1.10;;;;;;;10.49;62.39;99701.34;5050880;28;20237;-72
2022/11/20 13:43:36;;;;;;;2.78;0.63;;;;;;;10.31;61.16;99699.06;5053340;28;20056;-73
2022/11/20 13:46:06;;;;;;;1.35;1.10;;;;;;;10.04;61.84;99699.66;5055131;28;20093;-72
2022/11/20 13:48:38;;;;;;;1.90;1.02;;;;;;;10.20;63.00;99694.19;5055183;28;20044;-72
2022/11/20 13:51:25;;;;;;;3.20;0.75;;;;;;;10.23;63.42;99682.34;5054828;28;20159;-73
2022/11/20 13:54:01;;;;;;;1.92;1.30;;;;;;;10.28;62.79;99687.97;5055119;28;20060;-72
2022/11/20 13:56:54;;;;;;;1.98;0.90;;;;;;;10.21;63.22;99679.03;5055023;28;20090;-72
2022/11/20 13:59:44;;;;;;;5.47;0.80;;;;;;;10.04;64.38;99681.91;5046783;28;20510;-72
2022/11/20 14:02:14;;;;;;;1.48;0.90;;;;;;;9.92;65.35;99680.69;5052975;28;20045;-72
2022/11/20 14:04:45;;;;;;;1.10;0.80;;;;;;;9.82;67.61;99677.47;5054590;28;20501;-72
2022/11/20 14:07:11;;;;;;;1.00;0.80;;;;;;;9.93;65.87;99674.34;5052982;28;20040;-72
2022/11/20 14:09:36;;;;;;;1.38;0.60;;;;;;;9.84;65.58;99663.97;5054126;28;20037;-72
2022/11/20 14:12:04;;;;;;;0.95;0.75;;;;;;;9.99;67.63;99678.13;5054211;28;20037;-72
2022/11/20 14:14:32;;;;;;;0.95;0.88;;;;;;;9.95;66.03;99667.00;5054660;28;20398;-72
2022/11/20 14:17:17;;;;;;;1.85;0.85;;;;;;;9.81;64.85;99667.00;5054373;28;20087;-72
2022/11/20 14:19:45;;;;;;;3.22;1.08;;;;;;;9.85;65.86;99657.66;5053283;28;20059;-72
2022/11/20 14:22:13;;;;;;;2.00;1.15;;;;;;;9.83;68.07;99664.97;5054109;28;20052;-73
2022/11/20 14:24:39;;;;;;;3.25;0.80;;;;;;;9.86;65.65;99643.34;5054366;28;20441;-72
2022/11/20 14:27:04;;;;;;;2.60;0.93;;;;;;;9.71;64.83;99653.97;5054259;28;20041;-72
2022/11/20 14:29:36;;;;;;;0.57;0.57;;;;;;;9.64;65.13;99648.53;5054365;28;20128;-73
2022/11/20 14:32:03;;;;;;;1.30;0.82;;;;;;;9.61;65.60;99648.09;5053837;28;20041;-71
2022/11/20 14:34:32;;;;;;;6.22;1.10;;;;;;;9.46;66.44;99642.75;5054160;28;20025;-72
2022/11/20 14:37:05;;;;;;;1.83;0.90;;;;;;;9.37;67.31;99639.34;5054134;28;20049;-72
2022/11/20 14:39:33;;;;;;;1.42;0.80;;;;;;;9.25;66.73;99643.41;5052917;28;20041;-70
2022/11/20 14:41:59;;;;;;;1.55;1.05;;;;;;;9.27;66.97;99635.28;5053995;28;20029;-72
2022/11/20 14:44:32;;;;;;;2.08;0.60;;;;;;;9.11;68.84;99629.09;5054206;28;20482;-71
2022/11/20 14:47:01;;;;;;;1.70;0.60;;;;;;;9.09;67.21;99635.59;5053904;28;20401;-71
2022/11/20 14:49:30;;;;;;;3.08;0.90;;;;;;;9.05;68.18;99644.91;5053889;28;20116;-71
2022/11/20 14:52:00;;;;;;;1.92;1.13;;;;;;;9.07;69.85;99632.31;5053346;28;20033;-71
2022/11/20 14:54:28;;;;;;;3.67;0.90;;;;;;;8.95;68.30;99632.72;5053274;28;20611;-72
2022/11/20 14:56:58;;;;;;;2.17;1.08;;;;;;;8.92;69.26;99632.22;5052477;28;20076;-72
2022/11/20 14:59:33;;;;;;;0.93;0.90;;;;;;;8.84;70.51;99634.94;5053783;28;20045;-72
2022/11/20 15:02:09;;;;;;;0.52;0.52;;;;;;;8.80;70.55;99626.53;5053423;28;20520;-72
2022/11/20 15:04:50;;;;;;;0.82;0.77;;;;;;;8.68;70.68;99620.78;5053690;28;20064;-72
2022/11/20 15:07:26;;;;;;;2.83;1.60;;;;;;;8.67;71.19;99619.13;5053424;28;20045;-71
2022/11/20 15:10:32;;;;;;;1.33;1.00;;;;;;;8.67;70.65;99618.28;5053588;28;20083;-71
2022/11/20 15:13:02;;;;;;;1.65;1.10;;;;;;;8.66;71.41;99616.63;5053096;28;20067;-71
2022/11/20 15:15:33;;;;;;;3.05;1.13;;;;;;;8.56;72.93;99600.97;5053219;28;20044;-71
2022/11/20 15:17:59;;;;;;;2.60;0.82;;;;;;;8.57;70.56;99604.44;5053355;28;20516;-71
2022/11/20 15:20:28;;;;;;;2.13;1.10;;;;;;;8.53;72.43;99600.47;5053247;28;20040;-73
2022/11/20 15:22:54;;;;;;;5.25;1.40;;;;;;;8.52;73.91;99609.44;5053298;28;20071;-72
2022/11/20 15:25:19;;;;;;;4.00;1.30;;;;;;;8.41;73.81;99598.22;5053105;28;20440;-71
2022/11/20 15:27:49;;;;;;;3.65;0.90;;;;;;;8.34;73.83;99594.56;5053279;28;20045;-71
2022/11/20 15:30:17;;;;;;;1.15;0.70;;;;;;;8.40;73.67;99595.72;5051679;28;20033;-72
2022/11/20 15:32:44;;;;;;;2.47;1.23;;;;;;;8.31;74.10;99583.50;5053137;28;20020;-71
2022/11/20 15:35:10;;;;;;;2.03;1.00;;;;;;;8.34;73.18;99593.75;5051945;28;20072;-71
2022/11/20 15:37:36;;;;;;;0.93;0.85;;;;;;;8.33;74.55;99606.19;5053184;28;20052;-71
2022/11/20 15:40:02;;;;;;;2.65;1.17;;;;;;;8.35;73.05;99598.94;5052882;28;20570;-71
2022/11/20 15:42:28;;;;;;;3.30;1.02;;;;;;;8.36;73.95;99610.38;5052845;28;20486;-72
2022/11/20 15:44:53;;;;;;;0.75;0.70;;;;;;;8.35;74.14;99598.06;5052930;28;20055;-72
2022/11/20 15:47:25;;;;;;;1.48;1.00;;;;;;;8.39;74.97;99594.09;5052796;28;20168;-71
2022/11/20 15:49:50;;;;;;;2.25;1.30;;;;;;;8.35;73.54;99590.97;5052844;28;20047;-71
2022/11/20 15:52:16;;;;;;;2.38;1.30;;;;;;;8.34;73.41;99586.59;5052321;28;20033;-71
2022/11/20 15:54:41;;;;;;;3.38;0.85;;;;;;;8.35;74.61;99590.97;5052606;28;20068;-71
2022/11/20 15:57:07;;;;;;;6.57;0.85;;;;;;;8.35;72.65;99582.16;5052603;28;20037;-71
2022/11/20 15:59:32;;;;;;;0.77;0.77;;;;;;;8.29;72.99;99588.16;5052727;28;20493;-71
2022/11/20 16:01:57;;;;;;;1.17;0.90;;;;;;;8.32;73.51;99587.78;5051003;28;20118;-71
2022/11/20 16:04:23;;;;;;;4.70;0.98;;;;;;;8.31;73.34;99584.31;5051048;28;20040;-70
2022/11/20 16:06:48;;;;;;;2.72;1.23;;;;;;;8.33;74.55;99582.31;5051596;28;20048;-72
2022/11/20 16:09:14;;;;;;;2.53;1.10;;;;;;;8.29;73.84;99578.38;5051062;28;20041;-70
2022/11/20 16:11:39;;;;;;;2.65;0.90;;;;;;;8.32;74.27;99583.31;5051994;28;20041;-70
2022/11/20 16:16:49;;;;;;;1.35;0.95;;;;;;;8.26;75.07;99572.56;5052302;28;20056;-72
2022/11/20 16:19:15;;;;;;;1.10;0.73;;;;;;;8.24;74.76;99578.06;5052318;28;20052;-73
2022/11/20 16:21:42;;;;;;;2.03;1.40;;;;;;;8.25;73.72;99578.88;5051796;28;20029;-71
2022/11/20 16:24:10;;;;;;;3.08;1.33;;;;;;;8.24;74.92;99575.41;5052032;28;20041;-70
2022/11/20 16:26:36;;;;;;;1.40;1.05;;;;;;;8.23;75.20;99579.06;5052104;28;20037;-69
2022/11/20 16:29:03;;;;;;;1.77;1.25;;;;;;;8.24;73.95;99572.75;5052352;28;20037;-69
2022/11/20 16:31:29;;;;;;;2.38;1.20;;;;;;;8.19;74.47;99568.97;5051833;28;20081;-72
2022/11/20 16:33:56;;;;;;;1.30;0.85;;;;;;;8.18;75.61;99559.34;5052006;28;20032;-69
2022/11/20 16:36:24;;;;;;;1.73;0.90;;;;;;;8.18;74.80;99556.69;5052055;28;20087;-69
2022/11/20 16:39:01;;;;;;;2.38;1.20;;;;;;;8.18;74.33;99546.91;5051909;28;20291;-70
2022/11/20 16:41:29;;;;;;;1.48;1.10;;;;;;;8.16;74.25;99554.22;5051640;28;20029;-70
2022/11/20 16:43:57;;;;;;;2.05;1.30;;;;;;;8.11;75.15;99540.66;5051846;28;20128;-69
2022/11/20 16:46:24;;;;;;;2.10;1.13;;;;;;;8.10;75.77;99546.97;5051772;28;20041;-70
2022/11/20 16:49:00;;;;;;;3.83;1.60;;;;;;;8.09;76.27;99551.44;5050490;28;20037;-70
2022/11/20 16:51:27;;;;;;;2.75;1.83;;;;;;;8.07;75.75;99542.81;5051291;28;20303;-72
2022/11/20 16:53:54;;;;;;;2.47;1.37;;;;;;;8.07;76.56;99534.03;5051723;28;20028;-72
2022/11/20 16:56:24;;;;;;;2.20;1.47;;;;;;;8.05;76.25;99534.22;5051559;28;20709;-70
2022/11/20 16:58:52;;;;;;;2.13;1.35;;;;;;;8.05;75.69;99544.00;5051616;28;20686;-70
2022/11/20 17:01:22;;;;;;;1.90;1.42;;;;;;;8.04;76.43;99542.34;5049995;28;20028;-71
2022/11/20 17:03:59;;;;;;;1.40;1.30;;;;;;;8.06;77.12;99540.34;5050072;28;20098;-70
2022/11/20 17:06:29;;;;;;;1.88;1.25;;;;;;;8.04;78.27;99537.88;5051470;28;20132;-69
2022/11/20 17:08:56;;;;;;;2.65;1.23;;;;;;;8.01;78.32;99540.03;5051606;28;20433;-70
2022/11/20 17:11:22;;;;;;;2.42;0.95;;;;;;;8.02;79.18;99539.03;5050958;28;20029;-70
2022/11/20 17:13:48;;;;;;;2.05;0.98;;;;;;;8.00;80.16;99538.38;5051300;28;20032;-70
2022/11/20 17:16:16;;;;;;;2.70;1.48;;;;;;;7.97;80.98;99533.44;5051022;28;20045;-70
2022/11/20 17:18:43;;;;;;;;;;;;;;;7.98;81.80;99530.59;5051726;28;20475;-70
2022/11/20 17:21:08;;;;;;;3.05;1.13;;;;;;;7.95;81.69;99538.06;5050803;28;19918;-70
2022/11/20 17:23:37;;;;;;;6.90;1.35;;;;;;;7.95;84.33;99535.41;5051238;28;20057;-70
2022/11/20 17:26:06;;;;;;;1.30;1.13;;;;;;;7.86;88.41;99522.22;5051218;28;20037;-70